Terminal Aerodrome Forecast
Issued by NWS

Home | Current Version | Previous Version | Text Only | Print | Product List | Glossary On
Versions: 1 2 3 4 5 6 7 8 9 10 11 12 13 14 15 16 17 18
000
FTUS43 KSGF 210500
TAFBBG
TAF
KBBG 210520Z 2106/2206 00000KT 6SM BR SKC
     FM210700 00000KT 4SM BR SKC
     FM210900 00000KT 1SM BR SCT002
      TEMPO 2110/2114 1/4SM FG VV002
     FM211430 VRB03KT 4SM BR SCT004
     FM211530 VRB04KT P6SM SKC=

USA.gov is the U.S. government's official web portal to all federal, state and local government web resources and services.